sensor_id;sensor_type;location;lat;lon;timestamp;pressure;altitude;pressure_sealevel;temperature;humidity
27643;BME280;15053;48.618;10.024;2023-06-24T00:02:19;95171.19;;;17.77;72.01
27643;BME280;15053;48.618;10.024;2023-06-24T00:04:50;95180.94;;;17.77;72.08
27643;BME280;15053;48.618;10.024;2023-06-24T00:07:18;95175.84;;;17.72;71.71
27643;BME280;15053;48.618;10.024;2023-06-24T00:09:46;95183.25;;;17.69;71.84
27643;BME280;15053;48.618;10.024;2023-06-24T00:12:12;95179.09;;;17.68;71.93
27643;BME280;15053;48.618;10.024;2023-06-24T00:14:46;95184.19;;;17.65;71.95
27643;BME280;15053;48.618;10.024;2023-06-24T00:17:13;95180.47;;;17.66;72.00
27643;BME280;15053;48.618;10.024;2023-06-24T00:19:39;95180.16;;;17.67;72.06
27643;BME280;15053;48.618;10.024;2023-06-24T00:22:06;95179.09;;;17.68;72.26
27643;BME280;15053;48.618;10.024;2023-06-24T00:24:32;95169.00;;;17.71;72.22
27643;BME280;15053;48.618;10.024;2023-06-24T00:26:59;95176.91;;;17.71;72.08
27643;BME280;15053;48.618;10.024;2023-06-24T00:29:25;95177.97;;;17.69;72.17
27643;BME280;15053;48.618;10.024;2023-06-24T00:31:53;95177.19;;;17.69;72.44
27643;BME280;15053;48.618;10.024;2023-06-24T00:34:20;95177.19;;;17.69;72.40
27643;BME280;15053;48.618;10.024;2023-06-24T00:36:46;95180.94;;;17.68;72.32
27643;BME280;15053;48.618;10.024;2023-06-24T00:39:13;95176.28;;;17.65;72.66
27643;BME280;15053;48.618;10.024;2023-06-24T00:41:40;95172.09;;;17.64;72.51
27643;BME280;15053;48.618;10.024;2023-06-24T00:44:06;95167.13;;;17.62;72.57
27643;BME280;15053;48.618;10.024;2023-06-24T00:46:34;95173.19;;;17.63;72.33
27643;BME280;15053;48.618;10.024;2023-06-24T00:49:00;95175.03;;;17.62;73.00
27643;BME280;15053;48.618;10.024;2023-06-24T00:51:29;95175.19;;;17.57;73.28
27643;BME280;15053;48.618;10.024;2023-06-24T00:54:00;95169.91;;;17.57;73.39
27643;BME280;15053;48.618;10.024;2023-06-24T00:56:31;95166.97;;;17.59;73.56
27643;BME280;15053;48.618;10.024;2023-06-24T00:59:02;95162.63;;;17.54;73.96
27643;BME280;15053;48.618;10.024;2023-06-24T01:01:32;95169.44;;;17.55;73.52
27643;BME280;15053;48.618;10.024;2023-06-24T01:04:01;95166.78;;;17.55;73.57
27643;BME280;15053;48.618;10.024;2023-06-24T01:06:28;95171.78;;;17.57;73.37
27643;BME280;15053;48.618;10.024;2023-06-24T01:08:56;95180.47;;;17.57;73.68
27643;BME280;15053;48.618;10.024;2023-06-24T01:11:23;95181.22;;;17.58;73.86
27643;BME280;15053;48.618;10.024;2023-06-24T01:13:50;95176.72;;;17.58;74.57
27643;BME280;15053;48.618;10.024;2023-06-24T01:19:04;95169.91;;;17.57;75.94
27643;BME280;15053;48.618;10.024;2023-06-24T01:21:59;95176.59;;;17.55;76.14
27643;BME280;15053;48.618;10.024;2023-06-24T01:33:04;95150.00;;;17.34;76.28
27643;BME280;15053;48.618;10.024;2023-06-24T01:35:35;95151.84;;;17.34;76.06
27643;BME280;15053;48.618;10.024;2023-06-24T01:38:27;95154.81;;;17.41;76.16
27643;BME280;15053;48.618;10.024;2023-06-24T01:40:56;95154.97;;;17.44;76.19
27643;BME280;15053;48.618;10.024;2023-06-24T01:43:23;95159.47;;;17.44;76.16
27643;BME280;15053;48.618;10.024;2023-06-24T01:45:51;95160.22;;;17.44;76.28
27643;BME280;15053;48.618;10.024;2023-06-24T01:48:24;95148.47;;;17.42;77.15
27643;BME280;15053;48.618;10.024;2023-06-24T01:53:26;95158.09;;;17.46;77.40
27643;BME280;15053;48.618;10.024;2023-06-24T01:55:54;95148.78;;;17.49;77.34
27643;BME280;15053;48.618;10.024;2023-06-24T01:58:22;95136.06;;;17.42;77.49
27643;BME280;15053;48.618;10.024;2023-06-24T02:00:50;95143.81;;;17.47;77.43
27643;BME280;15053;48.618;10.024;2023-06-24T02:03:19;95142.91;;;17.43;77.60
27643;BME280;15053;48.618;10.024;2023-06-24T02:05:48;95138.25;;;17.40;77.17
27643;BME280;15053;48.618;10.024;2023-06-24T02:08:18;95137.91;;;17.33;77.28
27643;BME280;15053;48.618;10.024;2023-06-24T02:10:48;95123.50;;;17.22;76.94
27643;BME280;15053;48.618;10.024;2023-06-24T02:13:17;95143.94;;;17.25;76.07
27643;BME280;15053;48.618;10.024;2023-06-24T02:15:46;95134.94;;;17.18;75.39
27643;BME280;15053;48.618;10.024;2023-06-24T02:18:14;95135.06;;;17.13;75.18
27643;BME280;15053;48.618;10.024;2023-06-24T02:20:43;95128.72;;;17.05;75.18
27643;BME280;15053;48.618;10.024;2023-06-24T02:23:11;95127.28;;;16.99;75.10
27643;BME280;15053;48.618;10.024;2023-06-24T02:25:40;95126.19;;;16.91;75.09
27643;BME280;15053;48.618;10.024;2023-06-24T02:28:07;95123.06;;;16.81;74.91
27643;BME280;15053;48.618;10.024;2023-06-24T02:30:35;95126.91;;;16.75;75.22
27643;BME280;15053;48.618;10.024;2023-06-24T02:33:02;95127.50;;;16.72;75.20
27643;BME280;15053;48.618;10.024;2023-06-24T02:35:29;95124.50;;;16.65;75.49
27643;BME280;15053;48.618;10.024;2023-06-24T02:37:56;95119.53;;;16.55;75.63
27643;BME280;15053;48.618;10.024;2023-06-24T02:40:22;95120.09;;;16.51;75.52
27643;BME280;15053;48.618;10.024;2023-06-24T02:42:49;95120.22;;;16.46;75.53
27643;BME280;15053;48.618;10.024;2023-06-24T02:45:15;95117.88;;;16.36;75.65
27643;BME280;15053;48.618;10.024;2023-06-24T02:47:44;95127.88;;;16.34;76.05
27643;BME280;15053;48.618;10.024;2023-06-24T02:50:12;95135.44;;;16.27;76.04
27643;BME280;15053;48.618;10.024;2023-06-24T02:52:41;95129.53;;;16.22;76.15
27643;BME280;15053;48.618;10.024;2023-06-24T02:55:10;95137.81;;;16.15;76.13
27643;BME280;15053;48.618;10.024;2023-06-24T02:57:45;95140.41;;;16.07;76.84
27643;BME280;15053;48.618;10.024;2023-06-24T03:00:31;95134.78;;;16.00;76.93
27643;BME280;15053;48.618;10.024;2023-06-24T03:03:09;95135.69;;;15.95;76.98
27643;BME280;15053;48.618;10.024;2023-06-24T03:05:43;95144.16;;;15.92;77.25
27643;BME280;15053;48.618;10.024;2023-06-24T03:08:11;95146.00;;;15.91;77.75
27643;BME280;15053;48.618;10.024;2023-06-24T03:10:40;95150.97;;;15.93;77.84
27643;BME280;15053;48.618;10.024;2023-06-24T03:13:12;95153.88;;;15.91;78.28
27643;BME280;15053;48.618;10.024;2023-06-24T03:15:44;95154.38;;;15.93;78.53
27643;BME280;15053;48.618;10.024;2023-06-24T03:18:12;95155.72;;;15.91;78.76
27643;BME280;15053;48.618;10.024;2023-06-24T03:20:39;95159.25;;;15.86;79.05
27643;BME280;15053;48.618;10.024;2023-06-24T03:23:11;95153.22;;;15.86;79.22
27643;BME280;15053;48.618;10.024;2023-06-24T03:25:38;95165.47;;;15.90;79.21
27643;BME280;15053;48.618;10.024;2023-06-24T03:28:04;95160.81;;;15.87;79.31
27643;BME280;15053;48.618;10.024;2023-06-24T03:30:38;95164.53;;;15.86;79.61
27643;BME280;15053;48.618;10.024;2023-06-24T03:33:05;95161.41;;;15.84;79.41
27643;BME280;15053;48.618;10.024;2023-06-24T03:35:32;95162.47;;;15.83;79.90
27643;BME280;15053;48.618;10.024;2023-06-24T03:38:02;95167.44;;;15.85;79.84
27643;BME280;15053;48.618;10.024;2023-06-24T03:40:31;95171.50;;;15.91;79.51
27643;BME280;15053;48.618;10.024;2023-06-24T03:42:58;95166.25;;;15.91;79.82
27643;BME280;15053;48.618;10.024;2023-06-24T03:45:25;95172.00;;;15.93;79.71
27643;BME280;15053;48.618;10.024;2023-06-24T03:47:51;95166.75;;;15.93;79.51
27643;BME280;15053;48.618;10.024;2023-06-24T03:50:18;95170.63;;;15.96;79.38
27643;BME280;15053;48.618;10.024;2023-06-24T03:52:44;95169.84;;;15.95;79.36
27643;BME280;15053;48.618;10.024;2023-06-24T03:55:11;95178.59;;;15.90;79.28
27643;BME280;15053;48.618;10.024;2023-06-24T03:57:38;95180.47;;;15.90;78.98
27643;BME280;15053;48.618;10.024;2023-06-24T04:00:06;95180.94;;;15.92;78.78
27643;BME280;15053;48.618;10.024;2023-06-24T04:02:47;95180.63;;;15.93;78.48
27643;BME280;15053;48.618;10.024;2023-06-24T04:05:14;95183.75;;;15.96;78.07
27643;BME280;15053;48.618;10.024;2023-06-24T04:07:41;95183.94;;;15.99;77.98
27643;BME280;15053;48.618;10.024;2023-06-24T04:10:16;95187.06;;;16.01;78.24
27643;BME280;15053;48.618;10.024;2023-06-24T04:12:44;95184.13;;;16.03;77.69
27643;BME280;15053;48.618;10.024;2023-06-24T04:15:11;95193.25;;;16.05;77.71
27643;BME280;15053;48.618;10.024;2023-06-24T04:17:37;95193.13;;;16.10;77.39
27643;BME280;15053;48.618;10.024;2023-06-24T04:20:05;95196.25;;;16.12;77.02
27643;BME280;15053;48.618;10.024;2023-06-24T04:22:39;95204.31;;;16.16;76.68
27643;BME280;15053;48.618;10.024;2023-06-24T04:25:07;95202.94;;;16.18;76.57
27643;BME280;15053;48.618;10.024;2023-06-24T04:27:35;95196.94;;;16.18;76.26
27643;BME280;15053;48.618;10.024;2023-06-24T04:30:04;95201.28;;;16.22;75.95
27643;BME280;15053;48.618;10.024;2023-06-24T04:32:31;95207.00;;;16.24;75.84
27643;BME280;15053;48.618;10.024;2023-06-24T04:34:59;95206.41;;;16.27;75.60
27643;BME280;15053;48.618;10.024;2023-06-24T04:37:28;95208.72;;;16.29;75.74
27643;BME280;15053;48.618;10.024;2023-06-24T04:39:55;95203.38;;;16.34;75.57
27643;BME280;15053;48.618;10.024;2023-06-24T04:42:22;95204.78;;;16.40;75.38
27643;BME280;15053;48.618;10.024;2023-06-24T04:44:50;95206.81;;;16.43;75.36
27643;BME280;15053;48.618;10.024;2023-06-24T04:47:19;95212.75;;;16.48;75.22
27643;BME280;15053;48.618;10.024;2023-06-24T04:49:46;95213.72;;;16.52;74.98
27643;BME280;15053;48.618;10.024;2023-06-24T04:52:13;95202.31;;;16.57;75.09
27643;BME280;15053;48.618;10.024;2023-06-24T04:54:39;95212.88;;;16.66;74.80
27643;BME280;15053;48.618;10.024;2023-06-24T04:57:09;95209.34;;;16.70;74.42
27643;BME280;15053;48.618;10.024;2023-06-24T04:59:35;95213.00;;;16.83;74.31
27643;BME280;15053;48.618;10.024;2023-06-24T05:02:04;95213.81;;;16.92;73.92
27643;BME280;15053;48.618;10.024;2023-06-24T05:04:30;95217.09;;;16.97;73.58
27643;BME280;15053;48.618;10.024;2023-06-24T05:06:57;95225.31;;;17.04;73.51
27643;BME280;15053;48.618;10.024;2023-06-24T05:09:24;95222.91;;;17.17;73.25
27643;BME280;15053;48.618;10.024;2023-06-24T05:11:50;95229.28;;;17.24;73.29
27643;BME280;15053;48.618;10.024;2023-06-24T05:14:17;95226.84;;;17.36;72.89
27643;BME280;15053;48.618;10.024;2023-06-24T05:16:43;95218.19;;;17.44;72.33
27643;BME280;15053;48.618;10.024;2023-06-24T05:19:11;95229.56;;;17.53;72.07
27643;BME280;15053;48.618;10.024;2023-06-24T05:21:37;95215.16;;;17.59;71.58
27643;BME280;15053;48.618;10.024;2023-06-24T05:24:04;95229.16;;;17.68;71.08
27643;BME280;15053;48.618;10.024;2023-06-24T05:26:31;95220.31;;;17.73;70.80
27643;BME280;15053;48.618;10.024;2023-06-24T05:28:57;95223.56;;;17.79;70.34
27643;BME280;15053;48.618;10.024;2023-06-24T05:31:24;95230.56;;;17.83;70.29
27643;BME280;15053;48.618;10.024;2023-06-24T05:33:50;95229.66;;;17.88;70.05
27643;BME280;15053;48.618;10.024;2023-06-24T05:36:17;95227.16;;;17.91;70.24
27643;BME280;15053;48.618;10.024;2023-06-24T05:38:43;95216.16;;;17.98;70.06
27643;BME280;15053;48.618;10.024;2023-06-24T05:41:10;95221.59;;;18.01;69.64
27643;BME280;15053;48.618;10.024;2023-06-24T05:43:36;95223.28;;;18.06;69.38
27643;BME280;15053;48.618;10.024;2023-06-24T05:46:05;95222.34;;;18.10;69.38
27643;BME280;15053;48.618;10.024;2023-06-24T05:48:31;95218.31;;;18.13;68.55
27643;BME280;15053;48.618;10.024;2023-06-24T05:50:58;95227.63;;;18.19;68.26
27643;BME280;15053;48.618;10.024;2023-06-24T05:53:24;95225.16;;;18.22;68.22
27643;BME280;15053;48.618;10.024;2023-06-24T05:55:51;95222.53;;;18.22;67.98
27643;BME280;15053;48.618;10.024;2023-06-24T05:58:17;95215.84;;;18.25;67.65
27643;BME280;15053;48.618;10.024;2023-06-24T06:00:44;95219.44;;;18.29;67.53
27643;BME280;15053;48.618;10.024;2023-06-24T06:03:10;95218.03;;;18.32;67.17
27643;BME280;15053;48.618;10.024;2023-06-24T06:05:37;95222.81;;;18.38;66.76
27643;BME280;15053;48.618;10.024;2023-06-24T06:08:04;95220.34;;;18.42;66.34
27643;BME280;15053;48.618;10.024;2023-06-24T06:10:30;95223.16;;;18.45;66.49
27643;BME280;15053;48.618;10.024;2023-06-24T06:12:57;95215.88;;;18.51;66.35
27643;BME280;15053;48.618;10.024;2023-06-24T06:15:23;95207.47;;;18.40;66.14
27643;BME280;15053;48.618;10.024;2023-06-24T06:17:52;95226.41;;;18.59;65.69
27643;BME280;15053;48.618;10.024;2023-06-24T06:20:19;95228.13;;;18.64;65.44
27643;BME280;15053;48.618;10.024;2023-06-24T06:22:45;95224.06;;;18.66;65.50
27643;BME280;15053;48.618;10.024;2023-06-24T06:25:11;95222.38;;;18.70;65.17
27643;BME280;15053;48.618;10.024;2023-06-24T06:27:38;95222.66;;;18.77;65.09
27643;BME280;15053;48.618;10.024;2023-06-24T06:30:05;95216.13;;;18.83;64.74
27643;BME280;15053;48.618;10.024;2023-06-24T06:32:32;95214.53;;;18.91;64.03
27643;BME280;15053;48.618;10.024;2023-06-24T06:34:58;95217.78;;;18.97;63.67
27643;BME280;15053;48.618;10.024;2023-06-24T06:37:25;95215.44;;;19.04;63.74
27643;BME280;15053;48.618;10.024;2023-06-24T06:39:51;95213.09;;;19.11;63.42
27643;BME280;15053;48.618;10.024;2023-06-24T06:42:18;95208.72;;;19.15;63.05
27643;BME280;15053;48.618;10.024;2023-06-24T06:44:45;95210.72;;;19.18;62.51
27643;BME280;15053;48.618;10.024;2023-06-24T06:47:12;95216.59;;;19.23;62.38
27643;BME280;15053;48.618;10.024;2023-06-24T06:49:38;95210.69;;;19.26;62.16
27643;BME280;15053;48.618;10.024;2023-06-24T06:52:05;95215.78;;;19.40;61.91
27643;BME280;15053;48.618;10.024;2023-06-24T06:54:32;95215.91;;;19.52;61.74
27643;BME280;15053;48.618;10.024;2023-06-24T06:57:02;95211.84;;;19.55;60.84
27643;BME280;15053;48.618;10.024;2023-06-24T06:59:30;95216.63;;;19.61;60.53
27643;BME280;15053;48.618;10.024;2023-06-24T07:01:57;95218.44;;;19.69;60.46
27643;BME280;15053;48.618;10.024;2023-06-24T07:04:23;95223.66;;;19.78;60.14
27643;BME280;15053;48.618;10.024;2023-06-24T07:06:50;95224.09;;;19.88;60.33
27643;BME280;15053;48.618;10.024;2023-06-24T07:09:18;95222.91;;;19.98;59.53
27643;BME280;15053;48.618;10.024;2023-06-24T07:11:44;95214.53;;;19.96;59.08
27643;BME280;15053;48.618;10.024;2023-06-24T07:14:11;95221.50;;;20.00;59.09
27643;BME280;15053;48.618;10.024;2023-06-24T07:16:37;95210.72;;;20.06;58.75
27643;BME280;15053;48.618;10.024;2023-06-24T07:19:04;95221.38;;;20.18;58.62
27643;BME280;15053;48.618;10.024;2023-06-24T07:21:30;95226.31;;;20.28;58.04
27643;BME280;15053;48.618;10.024;2023-06-24T07:23:57;95216.09;;;20.38;58.04
27643;BME280;15053;48.618;10.024;2023-06-24T07:26:23;95223.66;;;20.48;57.92
27643;BME280;15053;48.618;10.024;2023-06-24T07:28:50;95215.38;;;20.50;57.55
27643;BME280;15053;48.618;10.024;2023-06-24T07:31:34;95218.53;;;20.64;58.05
27643;BME280;15053;48.618;10.024;2023-06-24T07:34:01;95218.00;;;20.71;57.34
27643;BME280;15053;48.618;10.024;2023-06-24T07:36:28;95219.22;;;20.73;56.85
27643;BME280;15053;48.618;10.024;2023-06-24T07:38:54;95221.31;;;20.80;57.33
27643;BME280;15053;48.618;10.024;2023-06-24T07:41:21;95220.00;;;20.86;56.56
27643;BME280;15053;48.618;10.024;2023-06-24T07:43:47;95220.34;;;20.84;56.37
27643;BME280;15053;48.618;10.024;2023-06-24T07:46:14;95222.78;;;20.89;56.19
27643;BME280;15053;48.618;10.024;2023-06-24T07:48:41;95214.63;;;20.94;55.92
27643;BME280;15053;48.618;10.024;2023-06-24T07:51:07;95217.06;;;20.99;55.96
27643;BME280;15053;48.618;10.024;2023-06-24T07:53:35;95210.72;;;21.12;55.84
27643;BME280;15053;48.618;10.024;2023-06-24T07:56:01;95209.63;;;21.13;56.08
27643;BME280;15053;48.618;10.024;2023-06-24T07:58:28;95217.59;;;21.26;56.23
27643;BME280;15053;48.618;10.024;2023-06-24T08:00:54;95217.72;;;21.53;55.99
27643;BME280;15053;48.618;10.024;2023-06-24T08:03:21;95216.81;;;21.73;55.26
27643;BME280;15053;48.618;10.024;2023-06-24T08:05:49;95213.94;;;21.66;54.99
27643;BME280;15053;48.618;10.024;2023-06-24T08:08:16;95219.13;;;21.63;54.92
27643;BME280;15053;48.618;10.024;2023-06-24T08:10:46;95217.72;;;21.53;55.16
27643;BME280;15053;48.618;10.024;2023-06-24T08:13:12;95213.19;;;21.42;54.98
27643;BME280;15053;48.618;10.024;2023-06-24T08:15:39;95221.91;;;21.42;54.83
27643;BME280;15053;48.618;10.024;2023-06-24T08:18:08;95217.38;;;21.55;54.61
27643;BME280;15053;48.618;10.024;2023-06-24T08:20:34;95215.38;;;21.52;54.80
27643;BME280;15053;48.618;10.024;2023-06-24T08:23:01;95215.16;;;21.45;54.71
27643;BME280;15053;48.618;10.024;2023-06-24T08:25:27;95207.00;;;21.50;54.20
27643;BME280;15053;48.618;10.024;2023-06-24T08:27:53;95207.63;;;21.71;53.70
27643;BME280;15053;48.618;10.024;2023-06-24T08:30:20;95198.56;;;21.96;52.83
27643;BME280;15053;48.618;10.024;2023-06-24T08:32:46;95205.78;;;22.23;52.58
27643;BME280;15053;48.618;10.024;2023-06-24T08:35:13;95199.69;;;22.35;52.16
27643;BME280;15053;48.618;10.024;2023-06-24T08:37:40;95198.41;;;22.45;51.48
27643;BME280;15053;48.618;10.024;2023-06-24T08:40:06;95196.09;;;22.43;51.38
27643;BME280;15053;48.618;10.024;2023-06-24T08:42:33;95200.34;;;22.60;50.88
27643;BME280;15053;48.618;10.024;2023-06-24T08:45:00;95203.59;;;22.81;50.40
27643;BME280;15053;48.618;10.024;2023-06-24T08:47:28;95191.88;;;22.98;49.38
27643;BME280;15053;48.618;10.024;2023-06-24T08:50:08;95197.13;;;23.25;49.40
27643;BME280;15053;48.618;10.024;2023-06-24T08:52:38;95194.84;;;23.39;49.54
27643;BME280;15053;48.618;10.024;2023-06-24T08:55:08;95196.19;;;23.65;50.16
27643;BME280;15053;48.618;10.024;2023-06-24T08:57:36;95200.41;;;23.85;49.38
27643;BME280;15053;48.618;10.024;2023-06-24T09:00:04;95196.88;;;23.96;48.62
27643;BME280;15053;48.618;10.024;2023-06-24T09:02:31;95193.09;;;23.97;48.30
27643;BME280;15053;48.618;10.024;2023-06-24T09:04:59;95205.69;;;24.16;47.56
27643;BME280;15053;48.618;10.024;2023-06-24T09:07:26;95203.59;;;24.25;47.24
27643;BME280;15053;48.618;10.024;2023-06-24T09:09:54;95197.84;;;24.42;46.96
27643;BME280;15053;48.618;10.024;2023-06-24T09:12:24;95193.78;;;24.48;45.83
27643;BME280;15053;48.618;10.024;2023-06-24T09:14:50;95197.00;;;24.57;45.52
27643;BME280;15053;48.618;10.024;2023-06-24T09:17:18;95195.22;;;24.65;46.06
27643;BME280;15053;48.618;10.024;2023-06-24T09:19:45;95189.56;;;24.67;45.80
27643;BME280;15053;48.618;10.024;2023-06-24T09:22:11;95192.34;;;24.74;45.44
27643;BME280;15053;48.618;10.024;2023-06-24T09:24:44;95194.72;;;24.79;45.57
27643;BME280;15053;48.618;10.024;2023-06-24T09:27:14;95195.53;;;24.79;44.65
27643;BME280;15053;48.618;10.024;2023-06-24T09:29:41;95190.06;;;24.72;44.33
27643;BME280;15053;48.618;10.024;2023-06-24T09:32:08;95187.44;;;24.76;44.75
27643;BME280;15053;48.618;10.024;2023-06-24T09:34:36;95181.59;;;24.89;44.17
27643;BME280;15053;48.618;10.024;2023-06-24T09:37:02;95179.31;;;25.10;43.69
27643;BME280;15053;48.618;10.024;2023-06-24T09:39:35;95185.53;;;25.18;43.09
27643;BME280;15053;48.618;10.024;2023-06-24T09:42:04;95176.84;;;25.21;42.81
27643;BME280;15053;48.618;10.024;2023-06-24T09:44:31;95184.03;;;24.98;42.44
27643;BME280;15053;48.618;10.024;2023-06-24T09:46:58;95184.34;;;24.74;43.42
27643;BME280;15053;48.618;10.024;2023-06-24T09:49:24;95175.28;;;24.55;44.25
27643;BME280;15053;48.618;10.024;2023-06-24T09:51:58;95181.78;;;24.58;44.15
27643;BME280;15053;48.618;10.024;2023-06-24T09:54:28;95168.28;;;24.47;44.85
27643;BME280;15053;48.618;10.024;2023-06-24T09:57:02;95173.16;;;24.26;45.21
27643;BME280;15053;48.618;10.024;2023-06-24T09:59:30;95172.19;;;24.34;45.51
27643;BME280;15053;48.618;10.024;2023-06-24T10:01:59;95163.88;;;24.58;45.19
27643;BME280;15053;48.618;10.024;2023-06-24T10:04:27;95173.19;;;24.87;45.08
27643;BME280;15053;48.618;10.024;2023-06-24T10:06:54;95164.06;;;25.11;44.59
27643;BME280;15053;48.618;10.024;2023-06-24T10:09:21;95160.16;;;25.28;44.34
27643;BME280;15053;48.618;10.024;2023-06-24T10:11:48;95151.19;;;25.39;43.97
27643;BME280;15053;48.618;10.024;2023-06-24T10:14:15;95157.19;;;25.55;42.62
27643;BME280;15053;48.618;10.024;2023-06-24T10:16:42;95151.31;;;25.72;42.43
27643;BME280;15053;48.618;10.024;2023-06-24T10:19:09;95154.69;;;25.96;42.61
27643;BME280;15053;48.618;10.024;2023-06-24T10:21:53;95149.31;;;26.22;43.71
27643;BME280;15053;48.618;10.024;2023-06-24T10:29:39;95136.44;;;26.64;43.04
27643;BME280;15053;48.618;10.024;2023-06-24T10:32:10;95139.31;;;26.49;42.27
27643;BME280;15053;48.618;10.024;2023-06-24T10:37:23;95141.25;;;25.89;42.10
27643;BME280;15053;48.618;10.024;2023-06-24T10:39:57;95143.97;;;25.40;42.95
27643;BME280;15053;48.618;10.024;2023-06-24T10:42:37;95139.72;;;25.12;44.01
27643;BME280;15053;48.618;10.024;2023-06-24T10:47:41;95140.97;;;24.54;44.12
27643;BME280;15053;48.618;10.024;2023-06-24T10:50:13;95134.81;;;24.50;44.44
27643;BME280;15053;48.618;10.024;2023-06-24T10:52:42;95130.91;;;24.44;44.50
27643;BME280;15053;48.618;10.024;2023-06-24T10:55:09;95129.72;;;24.41;44.92
27643;BME280;15053;48.618;10.024;2023-06-24T10:57:36;95126.22;;;24.37;45.25
27643;BME280;15053;48.618;10.024;2023-06-24T11:00:03;95129.16;;;24.32;45.20
27643;BME280;15053;48.618;10.024;2023-06-24T11:02:30;95120.97;;;24.22;44.48
27643;BME280;15053;48.618;10.024;2023-06-24T11:04:59;95119.00;;;24.19;44.55
27643;BME280;15053;48.618;10.024;2023-06-24T11:07:28;95116.44;;;24.22;44.77
27643;BME280;15053;48.618;10.024;2023-06-24T11:10:00;95108.22;;;24.31;44.74
27643;BME280;15053;48.618;10.024;2023-06-24T11:12:30;95109.19;;;24.42;44.75
27643;BME280;15053;48.618;10.024;2023-06-24T11:14:58;95098.50;;;24.84;44.13
27643;BME280;15053;48.618;10.024;2023-06-24T11:17:26;95098.88;;;25.31;44.23
27643;BME280;15053;48.618;10.024;2023-06-24T11:19:54;95097.72;;;25.85;44.07
27643;BME280;15053;48.618;10.024;2023-06-24T11:22:22;95093.00;;;26.34;42.94
27643;BME280;15053;48.618;10.024;2023-06-24T11:24:49;95093.34;;;26.73;41.99
27643;BME280;15053;48.618;10.024;2023-06-24T11:27:15;95082.78;;;26.83;41.90
27643;BME280;15053;48.618;10.024;2023-06-24T11:29:44;95089.84;;;27.06;41.43
27643;BME280;15053;48.618;10.024;2023-06-24T11:32:10;95090.38;;;27.29;41.36
27643;BME280;15053;48.618;10.024;2023-06-24T11:34:38;95081.66;;;27.39;40.00
27643;BME280;15053;48.618;10.024;2023-06-24T11:37:17;95079.75;;;27.36;39.45
27643;BME280;15053;48.618;10.024;2023-06-24T11:39:45;95074.06;;;27.41;40.48
27643;BME280;15053;48.618;10.024;2023-06-24T11:42:27;95078.41;;;27.67;40.23
27643;BME280;15053;48.618;10.024;2023-06-24T11:44:59;95084.59;;;27.81;39.61
27643;BME280;15053;48.618;10.024;2023-06-24T11:47:25;95079.66;;;27.87;39.11
27643;BME280;15053;48.618;10.024;2023-06-24T11:49:55;95079.69;;;27.97;38.65
27643;BME280;15053;48.618;10.024;2023-06-24T11:55:17;95064.72;;;27.89;38.44
27643;BME280;15053;48.618;10.024;2023-06-24T12:00:38;95062.53;;;28.16;37.90
27643;BME280;15053;48.618;10.024;2023-06-24T12:03:08;95063.91;;;27.78;37.00
27643;BME280;15053;48.618;10.024;2023-06-24T12:05:39;95049.78;;;27.20;36.70
27643;BME280;15053;48.618;10.024;2023-06-24T12:08:11;95055.19;;;27.23;37.24
27643;BME280;15053;48.618;10.024;2023-06-24T12:10:40;95048.94;;;27.67;37.89
27643;BME280;15053;48.618;10.024;2023-06-24T12:13:07;95053.19;;;27.71;36.01
27643;BME280;15053;48.618;10.024;2023-06-24T12:15:35;95049.28;;;27.55;36.80
27643;BME280;15053;48.618;10.024;2023-06-24T12:18:02;95037.00;;;27.46;36.80
27643;BME280;15053;48.618;10.024;2023-06-24T12:20:30;95039.38;;;27.62;37.10
27643;BME280;15053;48.618;10.024;2023-06-24T12:23:03;95041.72;;;27.78;37.35
27643;BME280;15053;48.618;10.024;2023-06-24T12:25:30;95036.38;;;27.78;37.61
27643;BME280;15053;48.618;10.024;2023-06-24T12:27:57;95025.81;;;27.34;36.89
27643;BME280;15053;48.618;10.024;2023-06-24T12:30:25;95028.44;;;27.27;38.04
27643;BME280;15053;48.618;10.024;2023-06-24T12:32:52;95025.63;;;27.71;37.58
27643;BME280;15053;48.618;10.024;2023-06-24T12:35:18;95026.97;;;28.23;37.62
27643;BME280;15053;48.618;10.024;2023-06-24T12:37:46;95022.03;;;28.42;36.98
27643;BME280;15053;48.618;10.024;2023-06-24T12:40:14;95020.47;;;28.24;37.65
27643;BME280;15053;48.618;10.024;2023-06-24T12:42:40;95015.09;;;28.09;37.10
27643;BME280;15053;48.618;10.024;2023-06-24T12:45:07;95011.47;;;27.63;37.38
27643;BME280;15053;48.618;10.024;2023-06-24T12:47:34;95023.22;;;27.48;37.57
27643;BME280;15053;48.618;10.024;2023-06-24T12:50:00;95010.34;;;27.75;37.50
27643;BME280;15053;48.618;10.024;2023-06-24T12:52:27;95000.53;;;28.14;37.35
27643;BME280;15053;48.618;10.024;2023-06-24T12:54:53;94998.69;;;28.43;36.98
27643;BME280;15053;48.618;10.024;2023-06-24T12:57:20;94992.22;;;28.65;36.41
27643;BME280;15053;48.618;10.024;2023-06-24T12:59:46;94996.00;;;28.89;35.60
27643;BME280;15053;48.618;10.024;2023-06-24T13:02:13;94994.47;;;29.05;34.37
27643;BME280;15053;48.618;10.024;2023-06-24T13:04:40;94982.97;;;28.98;34.22
27643;BME280;15053;48.618;10.024;2023-06-24T13:07:06;94988.31;;;29.05;34.18
27643;BME280;15053;48.618;10.024;2023-06-24T13:09:33;94991.38;;;29.14;33.35
27643;BME280;15053;48.618;10.024;2023-06-24T13:12:00;94985.25;;;29.10;32.43
27643;BME280;15053;48.618;10.024;2023-06-24T13:14:26;94997.88;;;29.27;34.14
27643;BME280;15053;48.618;10.024;2023-06-24T13:16:55;94992.81;;;29.54;33.33
27643;BME280;15053;48.618;10.024;2023-06-24T13:19:22;94982.84;;;29.58;33.20
27643;BME280;15053;48.618;10.024;2023-06-24T13:21:48;94989.06;;;29.16;33.06
27643;BME280;15053;48.618;10.024;2023-06-24T13:24:15;94994.88;;;28.65;33.87
27643;BME280;15053;48.618;10.024;2023-06-24T13:26:42;94998.25;;;28.23;34.45